createdAt,value
2023-01-18T00:04:47.487Z,37.10
2023-01-18T00:07:52.552Z,41.00
2023-01-18T00:11:01.380Z,37.60
2023-01-18T00:14:03.883Z,32.80
2023-01-18T00:17:07.179Z,35.00
2023-01-18T00:20:11.112Z,32.30
2023-01-18T00:23:13.650Z,35.40
2023-01-18T00:26:20.186Z,40.70
2023-01-18T03:30:12.461Z,43.90
2023-01-18T03:33:37.204Z,43.00
2023-01-18T03:36:53.987Z,44.90
2023-01-18T03:40:08.946Z,36.70
2023-01-18T03:43:16.923Z,37.90
2023-01-18T03:46:31.602Z,36.00
2023-01-18T03:49:34.767Z,40.80
2023-01-18T03:52:47.642Z,39.60
2023-01-18T03:55:57.709Z,36.40
2023-01-18T03:59:05.262Z,34.30
2023-01-18T04:05:05.718Z,29.90
2023-01-18T04:08:10.258Z,31.40
2023-01-18T04:11:14.559Z,31.80
2023-01-18T04:14:17.775Z,32.20
2023-01-18T04:17:22.742Z,35.20
2023-01-18T04:20:28.059Z,36.20
2023-01-18T04:23:30.645Z,27.90
2023-01-18T04:26:33.845Z,30.90
2023-01-18T04:29:36.750Z,32.00
2023-01-18T04:32:42.671Z,31.00
2023-01-18T04:35:45.973Z,27.20
2023-01-18T04:39:00.895Z,34.40
2023-01-18T04:42:06.228Z,29.10
2023-01-18T04:48:21.733Z,28.50
2023-01-18T04:51:26.219Z,25.20
2023-01-18T04:54:30.141Z,26.60
2023-01-18T04:57:39.038Z,24.20
2023-01-18T05:00:42.271Z,26.60
2023-01-18T05:03:46.776Z,24.70
2023-01-18T05:06:50.248Z,23.30
2023-01-18T05:09:53.093Z,30.10
2023-01-18T05:12:58.668Z,24.20
2023-01-18T05:16:06.129Z,25.90
2023-01-18T05:19:09.837Z,22.90
2023-01-18T05:22:13.393Z,23.80
2023-01-18T05:25:17.436Z,22.80
2023-01-18T05:28:19.997Z,21.40
2023-01-18T05:31:24.353Z,20.90
2023-01-18T05:34:28.334Z,21.30
2023-01-18T05:37:33.801Z,21.00
2023-01-18T05:40:37.379Z,24.00
2023-01-18T05:43:42.652Z,22.00
2023-01-18T05:46:46.745Z,28.90
2023-01-18T05:49:49.686Z,30.10
2023-01-18T05:52:54.082Z,29.00
2023-01-18T05:56:02.780Z,22.90
2023-01-18T05:59:05.977Z,23.90
2023-01-18T06:04:54.896Z,23.70
2023-01-18T06:07:57.665Z,23.50
2023-01-18T06:11:02.155Z,24.90
2023-01-18T06:14:05.984Z,25.90
2023-01-18T06:17:12.090Z,21.70
2023-01-18T06:20:15.936Z,22.90
2023-01-18T06:23:20.872Z,24.10
2023-01-18T06:26:26.451Z,22.30
2023-01-18T06:29:29.218Z,20.60
2023-01-18T06:32:33.018Z,23.40
2023-01-18T06:35:36.660Z,22.90
2023-01-18T06:38:39.853Z,20.00
2023-01-18T06:41:45.784Z,23.60
2023-01-18T06:44:49.170Z,26.00
2023-01-18T06:47:52.800Z,20.20
2023-01-18T06:50:58.620Z,20.80
2023-01-18T06:54:05.209Z,24.70
2023-01-18T06:57:13.416Z,22.10
2023-01-18T07:00:18.026Z,20.10
2023-01-18T07:03:21.963Z,22.10
2023-01-18T07:06:26.147Z,21.30
2023-01-18T07:09:33.641Z,24.70
2023-01-18T07:12:38.027Z,19.00
2023-01-18T07:15:40.374Z,21.10
2023-01-18T07:18:44.592Z,25.40
2023-01-18T07:21:49.525Z,23.80
2023-01-18T07:24:53.335Z,18.80
2023-01-18T07:27:59.734Z,27.70
2023-01-18T07:31:14.252Z,20.70
2023-01-18T07:34:19.118Z,20.30
2023-01-18T07:37:23.005Z,19.70
2023-01-18T07:40:30.239Z,30.30
2023-01-18T07:43:34.936Z,23.20
2023-01-18T07:46:39.895Z,16.90
2023-01-18T07:49:42.138Z,20.90
2023-01-18T07:52:46.124Z,19.90
2023-01-18T07:55:50.114Z,24.20
2023-01-18T14:04:43.349Z,31.40
2023-01-18T14:07:53.456Z,25.50
2023-01-18T14:11:06.315Z,21.70
2023-01-18T14:14:16.714Z,26.00
2023-01-18T14:17:20.855Z,23.00
2023-01-18T14:20:29.709Z,21.40
2023-01-18T14:23:58.959Z,18.20
2023-01-18T14:27:09.805Z,21.10
2023-01-18T14:30:31.284Z,17.00
2023-01-18T14:33:43.777Z,19.30
2023-01-18T14:36:48.838Z,25.70
2023-01-18T14:40:07.299Z,27.00
2023-01-18T14:43:43.313Z,22.70
2023-01-18T14:46:56.803Z,16.40
2023-01-18T14:50:01.845Z,19.60
2023-01-18T14:53:07.039Z,21.80
2023-01-18T14:56:09.768Z,22.50
2023-01-18T14:59:29.877Z,26.40
2023-01-18T15:02:38.861Z,19.60
2023-01-18T15:05:43.829Z,22.80
2023-01-18T15:08:50.871Z,22.00
2023-01-18T15:24:25.670Z,23.40
2023-01-18T15:27:34.926Z,17.70
2023-01-18T15:30:39.361Z,23.20
2023-01-18T15:33:44.429Z,18.10
2023-01-18T15:36:50.751Z,21.50
2023-01-18T15:40:05.435Z,23.00
2023-01-18T15:43:31.036Z,23.20
2023-01-18T15:46:39.340Z,17.40
2023-01-18T15:49:49.865Z,20.40
2023-01-18T15:53:05.546Z,20.90
